sensor_id;sensor_type;location;lat;lon;timestamp;temperature;humidity
41435;DHT22;27177;22.262;114.192;2022-07-29T00:00:08;29.50;99.90
41435;DHT22;27177;22.262;114.192;2022-07-29T00:02:36;29.50;99.90
41435;DHT22;27177;22.262;114.192;2022-07-29T00:05:05;29.40;99.90
41435;DHT22;27177;22.262;114.192;2022-07-29T00:07:32;29.50;99.90
41435;DHT22;27177;22.262;114.192;2022-07-29T00:09:59;29.50;99.90
41435;DHT22;27177;22.262;114.192;2022-07-29T00:12:26;29.50;99.90
41435;DHT22;27177;22.262;114.192;2022-07-29T00:14:54;29.50;99.90
41435;DHT22;27177;22.262;114.192;2022-07-29T00:17:22;29.60;99.90
41435;DHT22;27177;22.262;114.192;2022-07-29T00:19:49;29.70;99.90
41435;DHT22;27177;22.262;114.192;2022-07-29T00:22:16;29.70;99.90
41435;DHT22;27177;22.262;114.192;2022-07-29T00:24:43;29.70;99.90
41435;DHT22;27177;22.262;114.192;2022-07-29T00:27:10;29.80;99.90
41435;DHT22;27177;22.262;114.192;2022-07-29T00:29:37;29.70;99.90
41435;DHT22;27177;22.262;114.192;2022-07-29T00:32:05;29.80;99.90
41435;DHT22;27177;22.262;114.192;2022-07-29T00:34:32;29.90;99.90
41435;DHT22;27177;22.262;114.192;2022-07-29T00:37:17;29.80;99.90
41435;DHT22;27177;22.262;114.192;2022-07-29T00:42:19;29.90;99.90
41435;DHT22;27177;22.262;114.192;2022-07-29T00:44:46;30.00;99.90
41435;DHT22;27177;22.262;114.192;2022-07-29T00:47:13;30.00;99.90
41435;DHT22;27177;22.262;114.192;2022-07-29T00:49:41;30.10;99.90
41435;DHT22;27177;22.262;114.192;2022-07-29T00:52:10;30.10;99.90
41435;DHT22;27177;22.262;114.192;2022-07-29T00:57:13;30.20;99.90
41435;DHT22;27177;22.262;114.192;2022-07-29T00:59:40;30.10;99.90
41435;DHT22;27177;22.262;114.192;2022-07-29T01:07:18;30.20;99.90
41435;DHT22;27177;22.262;114.192;2022-07-29T01:12:21;30.30;99.90
41435;DHT22;27177;22.262;114.192;2022-07-29T01:14:52;30.40;99.90
41435;DHT22;27177;22.262;114.192;2022-07-29T01:20:07;30.40;99.90
41435;DHT22;27177;22.262;114.192;2022-07-29T01:30:59;30.90;99.90
41435;DHT22;27177;22.262;114.192;2022-07-29T01:33:28;31.00;99.90
41435;DHT22;27177;22.262;114.192;2022-07-29T01:36:30;31.00;99.90
41435;DHT22;27177;22.262;114.192;2022-07-29T01:39:48;31.10;99.90
41435;DHT22;27177;22.262;114.192;2022-07-29T01:48:13;31.10;99.90
41435;DHT22;27177;22.262;114.192;2022-07-29T01:50:17;31.20;99.90
41435;DHT22;27177;22.262;114.192;2022-07-29T01:52:56;31.10;99.90
41435;DHT22;27177;22.262;114.192;2022-07-29T01:55:28;31.20;99.90
41435;DHT22;27177;22.262;114.192;2022-07-29T01:57:57;31.20;99.90
41435;DHT22;27177;22.262;114.192;2022-07-29T02:00:26;31.30;99.90
41435;DHT22;27177;22.262;114.192;2022-07-29T02:02:53;31.40;99.90
41435;DHT22;27177;22.262;114.192;2022-07-29T02:05:21;31.50;99.90
41435;DHT22;27177;22.262;114.192;2022-07-29T02:07:50;31.60;99.90
41435;DHT22;27177;22.262;114.192;2022-07-29T02:10:23;31.60;99.90
41435;DHT22;27177;22.262;114.192;2022-07-29T02:15:22;31.60;99.90
41435;DHT22;27177;22.262;114.192;2022-07-29T02:17:55;31.60;99.90
41435;DHT22;27177;22.262;114.192;2022-07-29T02:22:52;31.60;99.90
41435;DHT22;27177;22.262;114.192;2022-07-29T02:27:56;31.60;99.90
41435;DHT22;27177;22.262;114.192;2022-07-29T02:30:24;31.70;99.90
41435;DHT22;27177;22.262;114.192;2022-07-29T02:35:27;31.80;99.90
41435;DHT22;27177;22.262;114.192;2022-07-29T02:46:33;31.80;99.90
41435;DHT22;27177;22.262;114.192;2022-07-29T02:56:55;32.00;99.90
41435;DHT22;27177;22.262;114.192;2022-07-29T02:59:27;32.10;99.90
41435;DHT22;27177;22.262;114.192;2022-07-29T03:01:55;32.00;99.90
41435;DHT22;27177;22.262;114.192;2022-07-29T03:07:00;32.00;99.90
41435;DHT22;27177;22.262;114.192;2022-07-29T03:09:28;32.00;99.90
41435;DHT22;27177;22.262;114.192;2022-07-29T03:14:32;31.90;99.90
41435;DHT22;27177;22.262;114.192;2022-07-29T03:17:00;32.10;99.90
41435;DHT22;27177;22.262;114.192;2022-07-29T03:19:27;32.10;99.90
41435;DHT22;27177;22.262;114.192;2022-07-29T03:21:58;32.20;99.90
41435;DHT22;27177;22.262;114.192;2022-07-29T03:27:04;32.10;99.90
41435;DHT22;27177;22.262;114.192;2022-07-29T03:32:13;32.30;99.90
41435;DHT22;27177;22.262;114.192;2022-07-29T03:37:13;32.40;99.90
41435;DHT22;27177;22.262;114.192;2022-07-29T03:39:43;32.40;99.90
41435;DHT22;27177;22.262;114.192;2022-07-29T03:42:14;32.30;99.90
41435;DHT22;27177;22.262;114.192;2022-07-29T03:44:44;32.30;99.90
41435;DHT22;27177;22.262;114.192;2022-07-29T03:47:14;32.20;99.90
41435;DHT22;27177;22.262;114.192;2022-07-29T03:49:45;32.20;99.90
41435;DHT22;27177;22.262;114.192;2022-07-29T03:52:15;32.10;99.90
41435;DHT22;27177;22.262;114.192;2022-07-29T03:54:43;32.00;99.90
41435;DHT22;27177;22.262;114.192;2022-07-29T03:57:11;32.00;99.90
41435;DHT22;27177;22.262;114.192;2022-07-29T03:59:39;32.10;99.90
41435;DHT22;27177;22.262;114.192;2022-07-29T04:02:09;32.20;99.90
41435;DHT22;27177;22.262;114.192;2022-07-29T04:04:37;32.30;99.90
41435;DHT22;27177;22.262;114.192;2022-07-29T04:07:04;32.30;99.90
41435;DHT22;27177;22.262;114.192;2022-07-29T04:09:31;32.30;99.90
41435;DHT22;27177;22.262;114.192;2022-07-29T04:11:58;32.30;99.90
41435;DHT22;27177;22.262;114.192;2022-07-29T04:14:25;32.20;99.90
41435;DHT22;27177;22.262;114.192;2022-07-29T04:16:52;32.10;99.90
41435;DHT22;27177;22.262;114.192;2022-07-29T04:19:19;32.20;99.90
41435;DHT22;27177;22.262;114.192;2022-07-29T04:21:46;32.20;99.90
41435;DHT22;27177;22.262;114.192;2022-07-29T04:24:13;32.20;99.90
41435;DHT22;27177;22.262;114.192;2022-07-29T04:26:40;32.30;99.90
41435;DHT22;27177;22.262;114.192;2022-07-29T04:29:09;32.30;99.90
41435;DHT22;27177;22.262;114.192;2022-07-29T04:31:42;32.50;99.90
41435;DHT22;27177;22.262;114.192;2022-07-29T04:34:10;32.40;99.90
41435;DHT22;27177;22.262;114.192;2022-07-29T04:36:37;32.40;99.90
41435;DHT22;27177;22.262;114.192;2022-07-29T04:39:04;32.40;99.90
41435;DHT22;27177;22.262;114.192;2022-07-29T04:41:32;32.40;99.90
41435;DHT22;27177;22.262;114.192;2022-07-29T04:43:59;32.40;99.90
41435;DHT22;27177;22.262;114.192;2022-07-29T04:46:46;32.40;99.90
41435;DHT22;27177;22.262;114.192;2022-07-29T04:49:13;32.40;99.90
41435;DHT22;27177;22.262;114.192;2022-07-29T04:51:40;32.30;99.90
41435;DHT22;27177;22.262;114.192;2022-07-29T04:54:07;32.30;99.90
41435;DHT22;27177;22.262;114.192;2022-07-29T04:56:34;32.20;99.90
41435;DHT22;27177;22.262;114.192;2022-07-29T04:59:01;32.30;99.90
41435;DHT22;27177;22.262;114.192;2022-07-29T05:01:28;32.30;99.90
41435;DHT22;27177;22.262;114.192;2022-07-29T05:03:55;32.30;99.90
41435;DHT22;27177;22.262;114.192;2022-07-29T05:06:22;32.40;99.90
41435;DHT22;27177;22.262;114.192;2022-07-29T05:08:49;32.30;99.90
41435;DHT22;27177;22.262;114.192;2022-07-29T05:11:18;32.40;99.90
41435;DHT22;27177;22.262;114.192;2022-07-29T05:13:45;32.40;99.90
41435;DHT22;27177;22.262;114.192;2022-07-29T05:16:13;32.50;99.90
41435;DHT22;27177;22.262;114.192;2022-07-29T05:18:40;32.50;99.90
41435;DHT22;27177;22.262;114.192;2022-07-29T05:21:08;32.50;99.90
41435;DHT22;27177;22.262;114.192;2022-07-29T05:23:38;32.60;99.90
41435;DHT22;27177;22.262;114.192;2022-07-29T05:26:04;32.50;99.90
41435;DHT22;27177;22.262;114.192;2022-07-29T05:28:35;32.70;99.90
41435;DHT22;27177;22.262;114.192;2022-07-29T05:31:02;32.60;99.90
41435;DHT22;27177;22.262;114.192;2022-07-29T05:33:29;32.60;99.90
41435;DHT22;27177;22.262;114.192;2022-07-29T05:35:56;32.70;99.90
41435;DHT22;27177;22.262;114.192;2022-07-29T05:38:23;32.70;99.90
41435;DHT22;27177;22.262;114.192;2022-07-29T05:40:50;32.80;99.90
41435;DHT22;27177;22.262;114.192;2022-07-29T05:43:17;32.70;99.90
41435;DHT22;27177;22.262;114.192;2022-07-29T05:45:46;32.80;99.90
41435;DHT22;27177;22.262;114.192;2022-07-29T05:48:13;32.80;99.90
41435;DHT22;27177;22.262;114.192;2022-07-29T05:50:40;33.00;99.90
41435;DHT22;27177;22.262;114.192;2022-07-29T05:53:09;33.10;99.90
41435;DHT22;27177;22.262;114.192;2022-07-29T05:55:36;33.00;99.90
41435;DHT22;27177;22.262;114.192;2022-07-29T05:58:03;33.10;99.90
41435;DHT22;27177;22.262;114.192;2022-07-29T06:00:30;33.00;99.90
41435;DHT22;27177;22.262;114.192;2022-07-29T06:02:57;33.00;99.90
41435;DHT22;27177;22.262;114.192;2022-07-29T06:05:24;33.00;99.90
41435;DHT22;27177;22.262;114.192;2022-07-29T06:07:51;33.00;99.90
41435;DHT22;27177;22.262;114.192;2022-07-29T06:10:19;32.90;99.90
41435;DHT22;27177;22.262;114.192;2022-07-29T06:12:46;33.00;99.90
41435;DHT22;27177;22.262;114.192;2022-07-29T06:15:13;33.10;99.90
41435;DHT22;27177;22.262;114.192;2022-07-29T06:17:40;33.00;99.90
41435;DHT22;27177;22.262;114.192;2022-07-29T06:20:07;33.00;99.90
41435;DHT22;27177;22.262;114.192;2022-07-29T06:22:34;32.80;99.90
41435;DHT22;27177;22.262;114.192;2022-07-29T06:25:02;32.90;99.90
41435;DHT22;27177;22.262;114.192;2022-07-29T06:27:29;32.80;99.90
41435;DHT22;27177;22.262;114.192;2022-07-29T06:29:56;32.80;99.90
41435;DHT22;27177;22.262;114.192;2022-07-29T06:32:24;32.80;99.90
41435;DHT22;27177;22.262;114.192;2022-07-29T06:34:51;32.80;99.90
41435;DHT22;27177;22.262;114.192;2022-07-29T06:37:18;32.80;99.90
41435;DHT22;27177;22.262;114.192;2022-07-29T06:39:45;32.80;99.90
41435;DHT22;27177;22.262;114.192;2022-07-29T06:42:12;32.70;99.90
41435;DHT22;27177;22.262;114.192;2022-07-29T06:44:39;32.70;99.90
41435;DHT22;27177;22.262;114.192;2022-07-29T06:47:08;32.70;99.90
41435;DHT22;27177;22.262;114.192;2022-07-29T06:49:34;32.80;99.90
41435;DHT22;27177;22.262;114.192;2022-07-29T06:52:01;32.90;99.90
41435;DHT22;27177;22.262;114.192;2022-07-29T06:54:29;33.00;99.90
41435;DHT22;27177;22.262;114.192;2022-07-29T06:56:56;32.90;99.90
41435;DHT22;27177;22.262;114.192;2022-07-29T06:59:23;32.90;99.90
41435;DHT22;27177;22.262;114.192;2022-07-29T07:01:50;32.70;99.90
41435;DHT22;27177;22.262;114.192;2022-07-29T07:04:17;32.70;99.90
41435;DHT22;27177;22.262;114.192;2022-07-29T07:06:44;32.60;99.90
41435;DHT22;27177;22.262;114.192;2022-07-29T07:09:11;32.60;99.90
41435;DHT22;27177;22.262;114.192;2022-07-29T07:11:38;32.50;99.90
41435;DHT22;27177;22.262;114.192;2022-07-29T07:14:05;32.60;99.90
41435;DHT22;27177;22.262;114.192;2022-07-29T07:16:32;32.70;99.90
41435;DHT22;27177;22.262;114.192;2022-07-29T07:18:59;32.50;99.90
41435;DHT22;27177;22.262;114.192;2022-07-29T07:21:28;32.50;99.90
41435;DHT22;27177;22.262;114.192;2022-07-29T07:23:56;32.40;99.90
41435;DHT22;27177;22.262;114.192;2022-07-29T07:26:23;32.40;99.90
41435;DHT22;27177;22.262;114.192;2022-07-29T07:28:50;32.50;99.90
41435;DHT22;27177;22.262;114.192;2022-07-29T07:31:17;32.30;99.90
41435;DHT22;27177;22.262;114.192;2022-07-29T07:33:44;32.40;99.90
41435;DHT22;27177;22.262;114.192;2022-07-29T07:36:11;32.30;99.90
41435;DHT22;27177;22.262;114.192;2022-07-29T07:38:38;32.30;99.90
41435;DHT22;27177;22.262;114.192;2022-07-29T07:41:05;32.50;99.90
41435;DHT22;27177;22.262;114.192;2022-07-29T07:43:33;32.50;99.90
41435;DHT22;27177;22.262;114.192;2022-07-29T07:46:00;32.70;99.90
41435;DHT22;27177;22.262;114.192;2022-07-29T07:48:27;32.70;99.90
41435;DHT22;27177;22.262;114.192;2022-07-29T07:50:54;32.50;99.90
41435;DHT22;27177;22.262;114.192;2022-07-29T07:53:21;32.20;99.90
41435;DHT22;27177;22.262;114.192;2022-07-29T07:55:48;31.90;99.90
41435;DHT22;27177;22.262;114.192;2022-07-29T07:58:15;31.70;99.90
41435;DHT22;27177;22.262;114.192;2022-07-29T08:00:42;31.40;99.90
41435;DHT22;27177;22.262;114.192;2022-07-29T08:03:09;31.20;99.90
41435;DHT22;27177;22.262;114.192;2022-07-29T08:05:39;31.00;99.90
41435;DHT22;27177;22.262;114.192;2022-07-29T08:08:06;30.90;99.90
41435;DHT22;27177;22.262;114.192;2022-07-29T08:10:34;30.90;99.90
41435;DHT22;27177;22.262;114.192;2022-07-29T08:13:23;30.80;99.90
41435;DHT22;27177;22.262;114.192;2022-07-29T08:15:51;30.90;99.90
41435;DHT22;27177;22.262;114.192;2022-07-29T08:18:29;30.90;99.90
41435;DHT22;27177;22.262;114.192;2022-07-29T08:20:56;30.80;99.90
41435;DHT22;27177;22.262;114.192;2022-07-29T08:23:24;30.80;99.90
41435;DHT22;27177;22.262;114.192;2022-07-29T08:25:53;30.80;99.90
41435;DHT22;27177;22.262;114.192;2022-07-29T08:28:19;30.70;99.90
41435;DHT22;27177;22.262;114.192;2022-07-29T08:30:46;30.60;99.90
41435;DHT22;27177;22.262;114.192;2022-07-29T08:33:13;30.50;99.90
41435;DHT22;27177;22.262;114.192;2022-07-29T08:35:40;30.50;99.90
41435;DHT22;27177;22.262;114.192;2022-07-29T08:38:07;30.50;99.90
41435;DHT22;27177;22.262;114.192;2022-07-29T08:40:34;30.40;99.90
41435;DHT22;27177;22.262;114.192;2022-07-29T08:43:08;30.30;99.90
41435;DHT22;27177;22.262;114.192;2022-07-29T08:45:47;30.30;99.90
41435;DHT22;27177;22.262;114.192;2022-07-29T08:48:24;30.40;99.90
41435;DHT22;27177;22.262;114.192;2022-07-29T08:50:55;30.50;99.90
41435;DHT22;27177;22.262;114.192;2022-07-29T08:53:25;30.50;99.90
41435;DHT22;27177;22.262;114.192;2022-07-29T08:55:53;30.50;99.90
41435;DHT22;27177;22.262;114.192;2022-07-29T08:58:21;30.60;99.90
41435;DHT22;27177;22.262;114.192;2022-07-29T09:00:54;30.60;99.90
41435;DHT22;27177;22.262;114.192;2022-07-29T09:03:24;30.50;99.90
41435;DHT22;27177;22.262;114.192;2022-07-29T09:05:52;30.60;99.90
41435;DHT22;27177;22.262;114.192;2022-07-29T09:08:21;30.50;99.90
41435;DHT22;27177;22.262;114.192;2022-07-29T09:10:49;30.50;99.90
41435;DHT22;27177;22.262;114.192;2022-07-29T09:13:18;30.50;99.90
41435;DHT22;27177;22.262;114.192;2022-07-29T09:15:45;30.60;99.90
41435;DHT22;27177;22.262;114.192;2022-07-29T09:18:12;30.70;99.90
41435;DHT22;27177;22.262;114.192;2022-07-29T09:20:39;30.70;99.90
41435;DHT22;27177;22.262;114.192;2022-07-29T09:23:32;30.70;99.90
41435;DHT22;27177;22.262;114.192;2022-07-29T09:31:10;30.80;99.90
41435;DHT22;27177;22.262;114.192;2022-07-29T09:36:12;31.00;99.90
41435;DHT22;27177;22.262;114.192;2022-07-29T09:38:39;31.10;99.90
41435;DHT22;27177;22.262;114.192;2022-07-29T09:41:06;31.00;99.90
41435;DHT22;27177;22.262;114.192;2022-07-29T09:43:36;31.00;99.90
41435;DHT22;27177;22.262;114.192;2022-07-29T09:46:13;31.00;99.90
41435;DHT22;27177;22.262;114.192;2022-07-29T09:48:40;30.90;99.90
41435;DHT22;27177;22.262;114.192;2022-07-29T09:51:18;30.90;99.90
41435;DHT22;27177;22.262;114.192;2022-07-29T09:53:46;30.70;99.90
41435;DHT22;27177;22.262;114.192;2022-07-29T09:56:13;30.70;99.90
41435;DHT22;27177;22.262;114.192;2022-07-29T09:58:40;30.70;99.90
41435;DHT22;27177;22.262;114.192;2022-07-29T10:01:08;30.70;99.90
41435;DHT22;27177;22.262;114.192;2022-07-29T10:03:51;30.50;99.90
41435;DHT22;27177;22.262;114.192;2022-07-29T10:06:18;30.40;99.90
41435;DHT22;27177;22.262;114.192;2022-07-29T10:08:46;30.30;99.90
41435;DHT22;27177;22.262;114.192;2022-07-29T10:11:15;30.20;99.90
41435;DHT22;27177;22.262;114.192;2022-07-29T10:13:43;30.20;99.90
41435;DHT22;27177;22.262;114.192;2022-07-29T10:16:12;30.10;99.90
41435;DHT22;27177;22.262;114.192;2022-07-29T10:18:40;30.10;99.90
41435;DHT22;27177;22.262;114.192;2022-07-29T10:21:08;30.00;99.90
41435;DHT22;27177;22.262;114.192;2022-07-29T10:26:04;29.90;99.90
41435;DHT22;27177;22.262;114.192;2022-07-29T10:28:32;29.80;99.90
41435;DHT22;27177;22.262;114.192;2022-07-29T10:31:03;29.80;99.90
41435;DHT22;27177;22.262;114.192;2022-07-29T10:34:05;29.80;99.90
41435;DHT22;27177;22.262;114.192;2022-07-29T10:42:20;29.90;99.90
41435;DHT22;27177;22.262;114.192;2022-07-29T10:44:51;29.90;99.90
41435;DHT22;27177;22.262;114.192;2022-07-29T10:47:26;29.80;99.90
41435;DHT22;27177;22.262;114.192;2022-07-29T10:50:04;29.80;99.90
41435;DHT22;27177;22.262;114.192;2022-07-29T10:52:53;29.70;99.90
41435;DHT22;27177;22.262;114.192;2022-07-29T10:55:37;29.70;99.90
41435;DHT22;27177;22.262;114.192;2022-07-29T10:58:22;29.70;99.90
41435;DHT22;27177;22.262;114.192;2022-07-29T11:00:53;29.70;99.90
41435;DHT22;27177;22.262;114.192;2022-07-29T11:03:45;29.80;99.90
41435;DHT22;27177;22.262;114.192;2022-07-29T11:06:13;29.80;99.90
41435;DHT22;27177;22.262;114.192;2022-07-29T11:08:41;29.80;99.90
41435;DHT22;27177;22.262;114.192;2022-07-29T11:13:48;29.80;99.90
41435;DHT22;27177;22.262;114.192;2022-07-29T11:16:21;29.70;99.90
41435;DHT22;27177;22.262;114.192;2022-07-29T11:21:39;29.70;99.90
41435;DHT22;27177;22.262;114.192;2022-07-29T11:24:35;29.60;99.90
41435;DHT22;27177;22.262;114.192;2022-07-29T11:27:19;29.70;99.90
41435;DHT22;27177;22.262;114.192;2022-07-29T11:29:55;29.70;99.90
41435;DHT22;27177;22.262;114.192;2022-07-29T11:32:24;29.70;99.90
41435;DHT22;27177;22.262;114.192;2022-07-29T11:37:27;29.70;99.90
41435;DHT22;27177;22.262;114.192;2022-07-29T11:52:43;29.70;99.90
41435;DHT22;27177;22.262;114.192;2022-07-29T12:00:26;29.50;99.90
41435;DHT22;27177;22.262;114.192;2022-07-29T12:03:03;29.50;99.90
41435;DHT22;27177;22.262;114.192;2022-07-29T12:08:11;29.40;99.90
41435;DHT22;27177;22.262;114.192;2022-07-29T12:15:55;29.50;99.90
41435;DHT22;27177;22.262;114.192;2022-07-29T12:18:26;29.50;99.90
41435;DHT22;27177;22.262;114.192;2022-07-29T12:20:58;29.50;99.90
41435;DHT22;27177;22.262;114.192;2022-07-29T12:31:16;29.50;99.90
41435;DHT22;27177;22.262;114.192;2022-07-29T12:36:18;29.50;99.90
41435;DHT22;27177;22.262;114.192;2022-07-29T12:43:56;29.40;99.90
41435;DHT22;27177;22.262;114.192;2022-07-29T12:46:23;29.40;99.90
41435;DHT22;27177;22.262;114.192;2022-07-29T12:48:52;29.40;99.90
41435;DHT22;27177;22.262;114.192;2022-07-29T12:56:35;29.50;99.90
41435;DHT22;27177;22.262;114.192;2022-07-29T12:59:12;29.50;99.90
41435;DHT22;27177;22.262;114.192;2022-07-29T13:01:39;29.60;99.90
41435;DHT22;27177;22.262;114.192;2022-07-29T13:04:07;29.60;99.90
41435;DHT22;27177;22.262;114.192;2022-07-29T13:06:44;29.50;99.90
41435;DHT22;27177;22.262;114.192;2022-07-29T13:09:16;29.50;99.90
41435;DHT22;27177;22.262;114.192;2022-07-29T13:11:54;29.50;99.90
41435;DHT22;27177;22.262;114.192;2022-07-29T13:14:36;29.50;99.90
41435;DHT22;27177;22.262;114.192;2022-07-29T13:17:15;29.40;99.90
41435;DHT22;27177;22.262;114.192;2022-07-29T13:19:44;29.40;99.90
41435;DHT22;27177;22.262;114.192;2022-07-29T13:22:21;29.30;99.90
41435;DHT22;27177;22.262;114.192;2022-07-29T13:24:57;29.30;99.90
41435;DHT22;27177;22.262;114.192;2022-07-29T15:14:10;29.30;99.90
41435;DHT22;27177;22.262;114.192;2022-07-29T15:50:17;29.30;99.90
41435;DHT22;27177;22.262;114.192;2022-07-29T15:52:45;29.20;99.90
41435;DHT22;27177;22.262;114.192;2022-07-29T15:55:12;29.20;99.90
41435;DHT22;27177;22.262;114.192;2022-07-29T15:57:40;29.20;99.90
41435;DHT22;27177;22.262;114.192;2022-07-29T16:13:01;29.00;99.90
41435;DHT22;27177;22.262;114.192;2022-07-29T16:29:20;28.70;99.90
41435;DHT22;27177;22.262;114.192;2022-07-29T16:31:47;28.70;99.90
41435;DHT22;27177;22.262;114.192;2022-07-29T16:34:14;28.70;99.90
41435;DHT22;27177;22.262;114.192;2022-07-29T16:36:41;28.80;99.90
41435;DHT22;27177;22.262;114.192;2022-07-29T16:39:08;28.80;99.90
41435;DHT22;27177;22.262;114.192;2022-07-29T16:52:00;28.80;99.90
41435;DHT22;27177;22.262;114.192;2022-07-29T16:57:24;28.80;99.90
41435;DHT22;27177;22.262;114.192;2022-07-29T17:07:34;28.80;99.90
41435;DHT22;27177;22.262;114.192;2022-07-29T17:10:02;28.90;99.90
41435;DHT22;27177;22.262;114.192;2022-07-29T17:12:38;29.00;99.90
41435;DHT22;27177;22.262;114.192;2022-07-29T17:20:16;29.00;99.90
41435;DHT22;27177;22.262;114.192;2022-07-29T17:33:04;28.80;99.90
41435;DHT22;27177;22.262;114.192;2022-07-29T17:38:06;29.00;99.90
41435;DHT22;27177;22.262;114.192;2022-07-29T17:40:34;28.90;99.90
41435;DHT22;27177;22.262;114.192;2022-07-29T17:43:01;29.00;99.90
41435;DHT22;27177;22.262;114.192;2022-07-29T17:53:16;28.90;99.90
41435;DHT22;27177;22.262;114.192;2022-07-29T17:58:19;29.00;99.90
41435;DHT22;27177;22.262;114.192;2022-07-29T18:00:46;29.10;99.90
41435;DHT22;27177;22.262;114.192;2022-07-29T18:03:14;29.10;99.90
41435;DHT22;27177;22.262;114.192;2022-07-29T18:05:41;29.10;99.90
41435;DHT22;27177;22.262;114.192;2022-07-29T18:08:08;29.10;99.90
41435;DHT22;27177;22.262;114.192;2022-07-29T18:10:36;29.00;99.90
41435;DHT22;27177;22.262;114.192;2022-07-29T18:13:03;28.90;99.90
41435;DHT22;27177;22.262;114.192;2022-07-29T18:15:30;28.90;99.90
41435;DHT22;27177;22.262;114.192;2022-07-29T18:17:57;28.90;99.90
41435;DHT22;27177;22.262;114.192;2022-07-29T18:20:25;28.80;99.90
41435;DHT22;27177;22.262;114.192;2022-07-29T18:22:52;28.80;99.90
41435;DHT22;27177;22.262;114.192;2022-07-29T18:25:20;28.80;99.90
41435;DHT22;27177;22.262;114.192;2022-07-29T18:27:48;28.70;99.90
41435;DHT22;27177;22.262;114.192;2022-07-29T18:30:15;28.60;99.90
41435;DHT22;27177;22.262;114.192;2022-07-29T18:32:42;28.70;99.90
41435;DHT22;27177;22.262;114.192;2022-07-29T18:35:09;28.70;99.90
41435;DHT22;27177;22.262;114.192;2022-07-29T18:37:36;28.80;99.90
41435;DHT22;27177;22.262;114.192;2022-07-29T18:40:04;28.80;99.90
41435;DHT22;27177;22.262;114.192;2022-07-29T18:42:31;28.80;99.90
41435;DHT22;27177;22.262;114.192;2022-07-29T18:44:59;28.90;99.90
41435;DHT22;27177;22.262;114.192;2022-07-29T18:47:26;28.90;99.90
41435;DHT22;27177;22.262;114.192;2022-07-29T18:49:53;28.80;99.90
41435;DHT22;27177;22.262;114.192;2022-07-29T18:52:20;28.80;99.90
41435;DHT22;27177;22.262;114.192;2022-07-29T18:54:47;28.80;99.90
41435;DHT22;27177;22.262;114.192;2022-07-29T18:57:14;28.80;99.90
41435;DHT22;27177;22.262;114.192;2022-07-29T18:59:41;28.90;99.90
41435;DHT22;27177;22.262;114.192;2022-07-29T19:02:08;28.90;99.90
41435;DHT22;27177;22.262;114.192;2022-07-29T19:04:35;28.90;99.90
41435;DHT22;27177;22.262;114.192;2022-07-29T19:07:02;29.00;99.90
41435;DHT22;27177;22.262;114.192;2022-07-29T19:09:30;29.00;99.90
41435;DHT22;27177;22.262;114.192;2022-07-29T19:11:56;29.10;99.90
41435;DHT22;27177;22.262;114.192;2022-07-29T19:14:24;29.00;99.90
41435;DHT22;27177;22.262;114.192;2022-07-29T19:16:50;29.00;99.90
41435;DHT22;27177;22.262;114.192;2022-07-29T19:19:17;28.90;99.90
41435;DHT22;27177;22.262;114.192;2022-07-29T19:21:44;28.90;99.90
41435;DHT22;27177;22.262;114.192;2022-07-29T19:24:12;29.00;99.90
41435;DHT22;27177;22.262;114.192;2022-07-29T19:26:39;29.00;99.90
41435;DHT22;27177;22.262;114.192;2022-07-29T19:29:15;28.90;99.90
41435;DHT22;27177;22.262;114.192;2022-07-29T19:31:43;29.00;99.90
41435;DHT22;27177;22.262;114.192;2022-07-29T19:34:10;29.00;99.90
41435;DHT22;27177;22.262;114.192;2022-07-29T19:36:37;29.10;99.90
41435;DHT22;27177;22.262;114.192;2022-07-29T19:39:04;29.10;99.90
41435;DHT22;27177;22.262;114.192;2022-07-29T19:41:31;29.20;99.90
41435;DHT22;27177;22.262;114.192;2022-07-29T19:44:01;29.20;99.90
41435;DHT22;27177;22.262;114.192;2022-07-29T19:46:28;29.10;99.90
41435;DHT22;27177;22.262;114.192;2022-07-29T19:48:55;29.20;99.90
41435;DHT22;27177;22.262;114.192;2022-07-29T19:51:23;29.20;99.90
41435;DHT22;27177;22.262;114.192;2022-07-29T19:53:50;29.10;99.90
41435;DHT22;27177;22.262;114.192;2022-07-29T19:56:17;29.10;99.90
41435;DHT22;27177;22.262;114.192;2022-07-29T19:58:44;29.00;99.90
41435;DHT22;27177;22.262;114.192;2022-07-29T20:01:11;29.00;99.90
41435;DHT22;27177;22.262;114.192;2022-07-29T20:03:38;29.10;99.90
41435;DHT22;27177;22.262;114.192;2022-07-29T20:06:06;29.00;99.90
41435;DHT22;27177;22.262;114.192;2022-07-29T20:08:33;29.00;99.90
41435;DHT22;27177;22.262;114.192;2022-07-29T20:11:01;28.90;99.90
41435;DHT22;27177;22.262;114.192;2022-07-29T20:13:28;29.00;99.90
41435;DHT22;27177;22.262;114.192;2022-07-29T20:15:57;29.10;99.90
41435;DHT22;27177;22.262;114.192;2022-07-29T20:18:24;29.10;99.90
41435;DHT22;27177;22.262;114.192;2022-07-29T20:20:51;29.10;99.90
41435;DHT22;27177;22.262;114.192;2022-07-29T20:23:20;29.00;99.90
41435;DHT22;27177;22.262;114.192;2022-07-29T20:25:49;29.10;99.90
41435;DHT22;27177;22.262;114.192;2022-07-29T20:28:16;29.10;99.90
41435;DHT22;27177;22.262;114.192;2022-07-29T20:30:43;29.10;99.90
41435;DHT22;27177;22.262;114.192;2022-07-29T20:33:10;29.00;99.90
41435;DHT22;27177;22.262;114.192;2022-07-29T20:35:37;29.00;99.90
41435;DHT22;27177;22.262;114.192;2022-07-29T20:38:06;29.00;99.90
41435;DHT22;27177;22.262;114.192;2022-07-29T20:40:33;29.00;99.90
41435;DHT22;27177;22.262;114.192;2022-07-29T20:43:01;28.90;99.90
41435;DHT22;27177;22.262;114.192;2022-07-29T20:45:28;29.00;99.90
41435;DHT22;27177;22.262;114.192;2022-07-29T20:47:55;29.00;99.90
41435;DHT22;27177;22.262;114.192;2022-07-29T20:50:22;29.00;99.90
41435;DHT22;27177;22.262;114.192;2022-07-29T20:52:50;29.00;99.90
41435;DHT22;27177;22.262;114.192;2022-07-29T20:55:17;28.90;99.90
41435;DHT22;27177;22.262;114.192;2022-07-29T20:57:44;28.90;99.90
41435;DHT22;27177;22.262;114.192;2022-07-29T21:00:11;28.90;99.90
41435;DHT22;27177;22.262;114.192;2022-07-29T21:02:38;28.90;99.90
41435;DHT22;27177;22.262;114.192;2022-07-29T21:05:06;28.80;99.90
41435;DHT22;27177;22.262;114.192;2022-07-29T21:07:33;28.80;99.90
41435;DHT22;27177;22.262;114.192;2022-07-29T21:10:00;28.70;99.90